sensor_id;sensor_type;location;lat;lon;timestamp;P1;durP1;ratioP1;P2;durP2;ratioP2
64597;SDS011;51004;54.692;9.332;2023-11-19T00:01:14;5.68;;;4.22;;
64597;SDS011;51004;54.692;9.332;2023-11-19T00:03:41;4.80;;;3.67;;
64597;SDS011;51004;54.692;9.332;2023-11-19T00:06:07;5.00;;;3.78;;
64597;SDS011;51004;54.692;9.332;2023-11-19T00:08:36;6.03;;;4.75;;
64597;SDS011;51004;54.692;9.332;2023-11-19T00:11:02;5.15;;;3.97;;
64597;SDS011;51004;54.692;9.332;2023-11-19T00:13:28;5.35;;;4.18;;
64597;SDS011;51004;54.692;9.332;2023-11-19T00:15:54;4.50;;;3.53;;
64597;SDS011;51004;54.692;9.332;2023-11-19T00:18:21;5.68;;;4.53;;
64597;SDS011;51004;54.692;9.332;2023-11-19T00:20:50;5.13;;;4.00;;
64597;SDS011;51004;54.692;9.332;2023-11-19T00:23:16;4.60;;;3.80;;
64597;SDS011;51004;54.692;9.332;2023-11-19T00:25:42;4.45;;;3.83;;
64597;SDS011;51004;54.692;9.332;2023-11-19T00:28:11;4.85;;;3.80;;
64597;SDS011;51004;54.692;9.332;2023-11-19T00:30:37;5.32;;;3.97;;
64597;SDS011;51004;54.692;9.332;2023-11-19T00:33:03;6.45;;;4.05;;
64597;SDS011;51004;54.692;9.332;2023-11-19T00:35:30;4.53;;;3.00;;
64597;SDS011;51004;54.692;9.332;2023-11-19T00:37:56;5.10;;;4.05;;
64597;SDS011;51004;54.692;9.332;2023-11-19T00:40:22;4.15;;;3.65;;
64597;SDS011;51004;54.692;9.332;2023-11-19T00:42:48;4.95;;;3.72;;
64597;SDS011;51004;54.692;9.332;2023-11-19T00:45:15;4.55;;;3.53;;
64597;SDS011;51004;54.692;9.332;2023-11-19T00:47:41;4.93;;;3.30;;
64597;SDS011;51004;54.692;9.332;2023-11-19T00:50:07;4.28;;;3.67;;
64597;SDS011;51004;54.692;9.332;2023-11-19T00:52:36;5.15;;;4.05;;
64597;SDS011;51004;54.692;9.332;2023-11-19T00:55:03;4.07;;;3.35;;
64597;SDS011;51004;54.692;9.332;2023-11-19T00:57:30;4.93;;;3.55;;
64597;SDS011;51004;54.692;9.332;2023-11-19T00:59:58;4.30;;;3.20;;
64597;SDS011;51004;54.692;9.332;2023-11-19T01:02:24;5.13;;;3.60;;
64597;SDS011;51004;54.692;9.332;2023-11-19T01:04:50;3.97;;;3.28;;
64597;SDS011;51004;54.692;9.332;2023-11-19T01:07:17;4.28;;;3.33;;
64597;SDS011;51004;54.692;9.332;2023-11-19T01:09:43;3.97;;;3.28;;
64597;SDS011;51004;54.692;9.332;2023-11-19T01:12:09;3.83;;;3.17;;
64597;SDS011;51004;54.692;9.332;2023-11-19T01:14:35;4.32;;;3.42;;
64597;SDS011;51004;54.692;9.332;2023-11-19T01:17:02;4.20;;;2.97;;
64597;SDS011;51004;54.692;9.332;2023-11-19T01:19:29;4.35;;;3.40;;
64597;SDS011;51004;54.692;9.332;2023-11-19T01:21:55;4.00;;;3.17;;
64597;SDS011;51004;54.692;9.332;2023-11-19T01:24:21;4.57;;;3.60;;
64597;SDS011;51004;54.692;9.332;2023-11-19T01:26:47;4.43;;;3.25;;
64597;SDS011;51004;54.692;9.332;2023-11-19T01:29:14;3.67;;;3.00;;
64597;SDS011;51004;54.692;9.332;2023-11-19T01:31:41;3.95;;;3.10;;
64597;SDS011;51004;54.692;9.332;2023-11-19T01:34:07;3.72;;;3.15;;
64597;SDS011;51004;54.692;9.332;2023-11-19T01:36:33;4.00;;;2.83;;
64597;SDS011;51004;54.692;9.332;2023-11-19T01:38:59;3.47;;;3.00;;
64597;SDS011;51004;54.692;9.332;2023-11-19T01:41:25;3.83;;;3.42;;
64597;SDS011;51004;54.692;9.332;2023-11-19T01:43:51;4.55;;;3.33;;
64597;SDS011;51004;54.692;9.332;2023-11-19T01:46:17;3.60;;;2.95;;
64597;SDS011;51004;54.692;9.332;2023-11-19T01:48:44;3.58;;;2.67;;
64597;SDS011;51004;54.692;9.332;2023-11-19T01:51:10;4.35;;;3.42;;
64597;SDS011;51004;54.692;9.332;2023-11-19T01:53:37;3.53;;;2.88;;
64597;SDS011;51004;54.692;9.332;2023-11-19T01:56:04;3.67;;;3.05;;
64597;SDS011;51004;54.692;9.332;2023-11-19T01:58:33;3.75;;;3.10;;
64597;SDS011;51004;54.692;9.332;2023-11-19T02:01:00;4.75;;;3.15;;
64597;SDS011;51004;54.692;9.332;2023-11-19T02:03:28;3.25;;;2.83;;
64597;SDS011;51004;54.692;9.332;2023-11-19T02:05:57;3.58;;;2.80;;
64597;SDS011;51004;54.692;9.332;2023-11-19T02:08:24;3.50;;;2.78;;
64597;SDS011;51004;54.692;9.332;2023-11-19T02:10:51;4.00;;;3.00;;
64597;SDS011;51004;54.692;9.332;2023-11-19T02:13:17;3.72;;;3.20;;
64597;SDS011;51004;54.692;9.332;2023-11-19T02:15:43;4.78;;;2.80;;
64597;SDS011;51004;54.692;9.332;2023-11-19T02:18:43;3.65;;;3.03;;
64597;SDS011;51004;54.692;9.332;2023-11-19T02:21:02;3.58;;;2.80;;
64597;SDS011;51004;54.692;9.332;2023-11-19T02:23:28;3.33;;;2.70;;
64597;SDS011;51004;54.692;9.332;2023-11-19T02:28:39;3.50;;;2.90;;
64597;SDS011;51004;54.692;9.332;2023-11-19T02:31:05;3.15;;;2.63;;
64597;SDS011;51004;54.692;9.332;2023-11-19T02:33:34;3.25;;;2.60;;
64597;SDS011;51004;54.692;9.332;2023-11-19T02:36:00;3.80;;;2.67;;
64597;SDS011;51004;54.692;9.332;2023-11-19T02:38:28;3.00;;;2.30;;
64597;SDS011;51004;54.692;9.332;2023-11-19T02:40:55;6.30;;;2.75;;
64597;SDS011;51004;54.692;9.332;2023-11-19T02:43:21;4.38;;;2.60;;
64597;SDS011;51004;54.692;9.332;2023-11-19T02:45:47;3.55;;;2.72;;
64597;SDS011;51004;54.692;9.332;2023-11-19T02:48:13;3.15;;;2.20;;
64597;SDS011;51004;54.692;9.332;2023-11-19T02:50:41;3.22;;;2.60;;
64597;SDS011;51004;54.692;9.332;2023-11-19T02:53:07;2.97;;;2.50;;
64597;SDS011;51004;54.692;9.332;2023-11-19T02:55:33;3.00;;;2.40;;
64597;SDS011;51004;54.692;9.332;2023-11-19T02:58:03;2.97;;;2.30;;
64597;SDS011;51004;54.692;9.332;2023-11-19T03:00:44;3.25;;;2.42;;
64597;SDS011;51004;54.692;9.332;2023-11-19T03:03:17;2.72;;;2.10;;
64597;SDS011;51004;54.692;9.332;2023-11-19T03:05:50;2.88;;;2.22;;
64597;SDS011;51004;54.692;9.332;2023-11-19T03:08:16;3.00;;;2.15;;
64597;SDS011;51004;54.692;9.332;2023-11-19T03:10:42;2.85;;;2.33;;
64597;SDS011;51004;54.692;9.332;2023-11-19T03:13:12;2.92;;;2.40;;
64597;SDS011;51004;54.692;9.332;2023-11-19T03:15:47;2.67;;;2.17;;
64597;SDS011;51004;54.692;9.332;2023-11-19T03:18:13;3.00;;;2.40;;
64597;SDS011;51004;54.692;9.332;2023-11-19T03:20:39;2.10;;;1.67;;
64597;SDS011;51004;54.692;9.332;2023-11-19T03:23:05;3.08;;;2.28;;
64597;SDS011;51004;54.692;9.332;2023-11-19T03:25:31;2.33;;;1.90;;
64597;SDS011;51004;54.692;9.332;2023-11-19T03:28:02;2.10;;;1.63;;
64597;SDS011;51004;54.692;9.332;2023-11-19T03:30:28;2.65;;;2.00;;
64597;SDS011;51004;54.692;9.332;2023-11-19T03:32:55;3.30;;;2.25;;
64597;SDS011;51004;54.692;9.332;2023-11-19T03:35:21;3.42;;;1.85;;
64597;SDS011;51004;54.692;9.332;2023-11-19T03:37:47;2.53;;;1.80;;
64597;SDS011;51004;54.692;9.332;2023-11-19T03:40:13;2.60;;;1.60;;
64597;SDS011;51004;54.692;9.332;2023-11-19T03:42:39;2.50;;;1.90;;
64597;SDS011;51004;54.692;9.332;2023-11-19T03:45:08;2.20;;;1.88;;
64597;SDS011;51004;54.692;9.332;2023-11-19T03:47:34;2.22;;;1.55;;
64597;SDS011;51004;54.692;9.332;2023-11-19T03:50:01;2.00;;;1.50;;
64597;SDS011;51004;54.692;9.332;2023-11-19T03:52:27;2.15;;;1.65;;
64597;SDS011;51004;54.692;9.332;2023-11-19T03:54:54;1.98;;;1.60;;
64597;SDS011;51004;54.692;9.332;2023-11-19T03:57:20;2.40;;;1.70;;
64597;SDS011;51004;54.692;9.332;2023-11-19T03:59:46;2.20;;;1.70;;
64597;SDS011;51004;54.692;9.332;2023-11-19T04:02:12;2.50;;;1.60;;
64597;SDS011;51004;54.692;9.332;2023-11-19T04:04:38;2.00;;;1.40;;
64597;SDS011;51004;54.692;9.332;2023-11-19T04:07:05;1.92;;;1.35;;
64597;SDS011;51004;54.692;9.332;2023-11-19T04:09:31;2.58;;;1.55;;
64597;SDS011;51004;54.692;9.332;2023-11-19T04:12:02;1.52;;;1.05;;
64597;SDS011;51004;54.692;9.332;2023-11-19T04:14:28;1.80;;;1.25;;
64597;SDS011;51004;54.692;9.332;2023-11-19T04:16:54;2.38;;;1.60;;
64597;SDS011;51004;54.692;9.332;2023-11-19T04:19:20;1.30;;;0.90;;
64597;SDS011;51004;54.692;9.332;2023-11-19T04:21:47;1.95;;;1.30;;
64597;SDS011;51004;54.692;9.332;2023-11-19T04:24:13;1.63;;;1.10;;
64597;SDS011;51004;54.692;9.332;2023-11-19T04:26:43;2.22;;;1.50;;
64597;SDS011;51004;54.692;9.332;2023-11-19T04:29:13;1.90;;;1.30;;
64597;SDS011;51004;54.692;9.332;2023-11-19T04:31:42;1.90;;;1.38;;
64597;SDS011;51004;54.692;9.332;2023-11-19T04:34:09;1.55;;;1.10;;
64597;SDS011;51004;54.692;9.332;2023-11-19T04:36:36;1.90;;;1.13;;
64597;SDS011;51004;54.692;9.332;2023-11-19T04:39:02;3.22;;;1.20;;
64597;SDS011;51004;54.692;9.332;2023-11-19T04:41:36;1.58;;;1.05;;
64597;SDS011;51004;54.692;9.332;2023-11-19T04:44:10;1.45;;;0.85;;
64597;SDS011;51004;54.692;9.332;2023-11-19T04:46:36;1.30;;;0.73;;
64597;SDS011;51004;54.692;9.332;2023-11-19T04:49:02;1.25;;;0.80;;
64597;SDS011;51004;54.692;9.332;2023-11-19T04:51:29;1.50;;;0.90;;
64597;SDS011;51004;54.692;9.332;2023-11-19T04:53:55;1.30;;;0.90;;
64597;SDS011;51004;54.692;9.332;2023-11-19T04:56:21;1.35;;;0.82;;
64597;SDS011;51004;54.692;9.332;2023-11-19T04:58:49;1.50;;;0.90;;
64597;SDS011;51004;54.692;9.332;2023-11-19T05:01:15;1.23;;;0.80;;
64597;SDS011;51004;54.692;9.332;2023-11-19T05:03:44;1.40;;;0.90;;
64597;SDS011;51004;54.692;9.332;2023-11-19T05:06:10;1.00;;;0.60;;
64597;SDS011;51004;54.692;9.332;2023-11-19T05:08:36;1.33;;;0.90;;
64597;SDS011;51004;54.692;9.332;2023-11-19T05:11:02;1.10;;;0.70;;
64597;SDS011;51004;54.692;9.332;2023-11-19T05:13:28;1.35;;;0.82;;
64597;SDS011;51004;54.692;9.332;2023-11-19T05:15:57;1.20;;;0.70;;
64597;SDS011;51004;54.692;9.332;2023-11-19T05:18:23;1.35;;;0.80;;
64597;SDS011;51004;54.692;9.332;2023-11-19T05:20:49;1.08;;;0.70;;
64597;SDS011;51004;54.692;9.332;2023-11-19T05:23:15;1.10;;;0.70;;
64597;SDS011;51004;54.692;9.332;2023-11-19T05:25:41;1.50;;;0.75;;
64597;SDS011;51004;54.692;9.332;2023-11-19T05:28:07;1.30;;;0.80;;
64597;SDS011;51004;54.692;9.332;2023-11-19T05:30:33;1.10;;;0.60;;
64597;SDS011;51004;54.692;9.332;2023-11-19T05:32:59;1.00;;;0.60;;
64597;SDS011;51004;54.692;9.332;2023-11-19T05:35:25;1.38;;;0.75;;
64597;SDS011;51004;54.692;9.332;2023-11-19T05:37:51;1.10;;;0.68;;
64597;SDS011;51004;54.692;9.332;2023-11-19T05:40:18;1.30;;;0.70;;
64597;SDS011;51004;54.692;9.332;2023-11-19T05:42:45;1.02;;;0.50;;
64597;SDS011;51004;54.692;9.332;2023-11-19T05:45:11;1.02;;;0.60;;
64597;SDS011;51004;54.692;9.332;2023-11-19T05:47:37;1.40;;;0.63;;
64597;SDS011;51004;54.692;9.332;2023-11-19T05:50:03;1.65;;;0.63;;
64597;SDS011;51004;54.692;9.332;2023-11-19T05:52:31;1.20;;;0.80;;
64597;SDS011;51004;54.692;9.332;2023-11-19T05:55:01;1.25;;;0.70;;
64597;SDS011;51004;54.692;9.332;2023-11-19T05:57:34;1.10;;;0.50;;
64597;SDS011;51004;54.692;9.332;2023-11-19T06:00:00;2.50;;;0.57;;
64597;SDS011;51004;54.692;9.332;2023-11-19T06:02:26;1.05;;;0.60;;
64597;SDS011;51004;54.692;9.332;2023-11-19T06:04:53;1.00;;;0.60;;
64597;SDS011;51004;54.692;9.332;2023-11-19T06:07:19;1.10;;;0.52;;
64597;SDS011;51004;54.692;9.332;2023-11-19T06:09:45;0.98;;;0.57;;
64597;SDS011;51004;54.692;9.332;2023-11-19T06:12:11;0.98;;;0.60;;
64597;SDS011;51004;54.692;9.332;2023-11-19T06:14:39;1.13;;;0.70;;
64597;SDS011;51004;54.692;9.332;2023-11-19T06:17:06;1.00;;;0.60;;
64597;SDS011;51004;54.692;9.332;2023-11-19T06:19:33;0.85;;;0.50;;
64597;SDS011;51004;54.692;9.332;2023-11-19T06:21:59;1.00;;;0.55;;
64597;SDS011;51004;54.692;9.332;2023-11-19T06:24:25;1.20;;;0.80;;
64597;SDS011;51004;54.692;9.332;2023-11-19T06:26:51;1.20;;;0.80;;
64597;SDS011;51004;54.692;9.332;2023-11-19T06:29:17;1.10;;;0.60;;
64597;SDS011;51004;54.692;9.332;2023-11-19T06:31:44;1.00;;;0.60;;
64597;SDS011;51004;54.692;9.332;2023-11-19T06:34:13;1.15;;;0.65;;
64597;SDS011;51004;54.692;9.332;2023-11-19T06:36:39;0.90;;;0.60;;
64597;SDS011;51004;54.692;9.332;2023-11-19T06:39:05;1.00;;;0.60;;
64597;SDS011;51004;54.692;9.332;2023-11-19T06:41:35;2.22;;;0.70;;
64597;SDS011;51004;54.692;9.332;2023-11-19T06:44:03;1.02;;;0.50;;
64597;SDS011;51004;54.692;9.332;2023-11-19T06:46:29;1.20;;;0.75;;
64597;SDS011;51004;54.692;9.332;2023-11-19T06:48:56;1.23;;;0.82;;
64597;SDS011;51004;54.692;9.332;2023-11-19T06:51:22;1.13;;;0.82;;
64597;SDS011;51004;54.692;9.332;2023-11-19T06:53:49;1.35;;;0.80;;
64597;SDS011;51004;54.692;9.332;2023-11-19T06:56:22;0.98;;;0.65;;
64597;SDS011;51004;54.692;9.332;2023-11-19T06:58:48;1.35;;;0.80;;
64597;SDS011;51004;54.692;9.332;2023-11-19T07:01:14;1.83;;;0.88;;
64597;SDS011;51004;54.692;9.332;2023-11-19T07:03:46;1.17;;;0.52;;
64597;SDS011;51004;54.692;9.332;2023-11-19T07:06:12;1.55;;;1.00;;
64597;SDS011;51004;54.692;9.332;2023-11-19T07:08:39;1.60;;;1.00;;
64597;SDS011;51004;54.692;9.332;2023-11-19T07:11:05;1.20;;;0.63;;
64597;SDS011;51004;54.692;9.332;2023-11-19T07:13:31;1.17;;;0.80;;
64597;SDS011;51004;54.692;9.332;2023-11-19T07:15:57;1.83;;;0.70;;
64597;SDS011;51004;54.692;9.332;2023-11-19T07:18:23;1.20;;;0.65;;
64597;SDS011;51004;54.692;9.332;2023-11-19T07:20:49;1.30;;;0.90;;
64597;SDS011;51004;54.692;9.332;2023-11-19T07:23:15;1.20;;;0.80;;
64597;SDS011;51004;54.692;9.332;2023-11-19T07:25:42;1.27;;;0.80;;
64597;SDS011;51004;54.692;9.332;2023-11-19T07:28:10;1.67;;;0.90;;
64597;SDS011;51004;54.692;9.332;2023-11-19T07:30:36;1.40;;;0.80;;
64597;SDS011;51004;54.692;9.332;2023-11-19T07:33:03;1.45;;;0.90;;
64597;SDS011;51004;54.692;9.332;2023-11-19T07:35:29;1.30;;;0.90;;
64597;SDS011;51004;54.692;9.332;2023-11-19T07:37:56;1.30;;;0.80;;
64597;SDS011;51004;54.692;9.332;2023-11-19T07:40:22;1.45;;;1.00;;
64597;SDS011;51004;54.692;9.332;2023-11-19T07:42:49;1.38;;;0.90;;
64597;SDS011;51004;54.692;9.332;2023-11-19T07:45:15;1.95;;;1.17;;
64597;SDS011;51004;54.692;9.332;2023-11-19T07:47:41;1.60;;;1.00;;
64597;SDS011;51004;54.692;9.332;2023-11-19T07:50:09;1.30;;;0.85;;
64597;SDS011;51004;54.692;9.332;2023-11-19T07:52:35;2.05;;;1.08;;
64597;SDS011;51004;54.692;9.332;2023-11-19T07:55:01;1.55;;;1.10;;
64597;SDS011;51004;54.692;9.332;2023-11-19T07:57:27;1.80;;;1.20;;
64597;SDS011;51004;54.692;9.332;2023-11-19T07:59:55;1.98;;;1.20;;
64597;SDS011;51004;54.692;9.332;2023-11-19T08:02:21;2.15;;;1.20;;
64597;SDS011;51004;54.692;9.332;2023-11-19T08:04:51;2.28;;;1.15;;
64597;SDS011;51004;54.692;9.332;2023-11-19T08:07:21;2.45;;;1.27;;
64597;SDS011;51004;54.692;9.332;2023-11-19T08:09:47;2.13;;;1.33;;
64597;SDS011;51004;54.692;9.332;2023-11-19T08:12:13;2.15;;;1.35;;
64597;SDS011;51004;54.692;9.332;2023-11-19T08:14:42;2.00;;;1.20;;
64597;SDS011;51004;54.692;9.332;2023-11-19T08:17:09;2.80;;;1.40;;
64597;SDS011;51004;54.692;9.332;2023-11-19T08:19:35;3.38;;;1.40;;
64597;SDS011;51004;54.692;9.332;2023-11-19T08:22:01;2.08;;;1.10;;
64597;SDS011;51004;54.692;9.332;2023-11-19T08:24:27;4.38;;;1.77;;
64597;SDS011;51004;54.692;9.332;2023-11-19T08:26:53;3.72;;;1.88;;
64597;SDS011;51004;54.692;9.332;2023-11-19T08:29:19;3.50;;;1.60;;
64597;SDS011;51004;54.692;9.332;2023-11-19T08:31:46;10.32;;;2.80;;
64597;SDS011;51004;54.692;9.332;2023-11-19T08:34:12;4.00;;;1.80;;
64597;SDS011;51004;54.692;9.332;2023-11-19T08:36:38;4.07;;;1.70;;
64597;SDS011;51004;54.692;9.332;2023-11-19T08:39:04;6.55;;;2.80;;
64597;SDS011;51004;54.692;9.332;2023-11-19T08:41:30;8.10;;;2.00;;
64597;SDS011;51004;54.692;9.332;2023-11-19T08:43:56;5.38;;;2.13;;
64597;SDS011;51004;54.692;9.332;2023-11-19T08:46:22;7.65;;;2.08;;
64597;SDS011;51004;54.692;9.332;2023-11-19T08:48:48;11.10;;;2.97;;
64597;SDS011;51004;54.692;9.332;2023-11-19T08:51:14;6.82;;;2.03;;
64597;SDS011;51004;54.692;9.332;2023-11-19T08:53:43;7.43;;;2.55;;
64597;SDS011;51004;54.692;9.332;2023-11-19T08:56:09;10.60;;;3.13;;
64597;SDS011;51004;54.692;9.332;2023-11-19T08:58:35;5.55;;;1.88;;
64597;SDS011;51004;54.692;9.332;2023-11-19T09:01:01;6.53;;;1.98;;
64597;SDS011;51004;54.692;9.332;2023-11-19T09:03:30;4.65;;;2.33;;
64597;SDS011;51004;54.692;9.332;2023-11-19T09:05:56;7.75;;;2.05;;
64597;SDS011;51004;54.692;9.332;2023-11-19T09:08:22;9.73;;;2.90;;
64597;SDS011;51004;54.692;9.332;2023-11-19T09:10:49;8.10;;;2.13;;
64597;SDS011;51004;54.692;9.332;2023-11-19T09:13:14;7.30;;;1.65;;
64597;SDS011;51004;54.692;9.332;2023-11-19T09:15:41;6.30;;;2.10;;
64597;SDS011;51004;54.692;9.332;2023-11-19T09:18:07;9.57;;;2.40;;
64597;SDS011;51004;54.692;9.332;2023-11-19T09:20:33;8.20;;;2.47;;
64597;SDS011;51004;54.692;9.332;2023-11-19T09:23:03;7.55;;;1.77;;
64597;SDS011;51004;54.692;9.332;2023-11-19T09:25:30;7.57;;;2.10;;
64597;SDS011;51004;54.692;9.332;2023-11-19T09:27:56;5.13;;;1.98;;
64597;SDS011;51004;54.692;9.332;2023-11-19T09:30:22;10.60;;;2.50;;
64597;SDS011;51004;54.692;9.332;2023-11-19T09:32:48;6.85;;;2.30;;
64597;SDS011;51004;54.692;9.332;2023-11-19T09:35:14;6.32;;;1.60;;
64597;SDS011;51004;54.692;9.332;2023-11-19T09:37:47;7.78;;;3.30;;
64597;SDS011;51004;54.692;9.332;2023-11-19T09:40:13;11.38;;;2.45;;
64597;SDS011;51004;54.692;9.332;2023-11-19T09:42:42;10.05;;;2.10;;
64597;SDS011;51004;54.692;9.332;2023-11-19T09:45:12;8.13;;;2.33;;
64597;SDS011;51004;54.692;9.332;2023-11-19T09:47:39;7.47;;;2.15;;
64597;SDS011;51004;54.692;9.332;2023-11-19T09:50:05;8.82;;;2.30;;
64597;SDS011;51004;54.692;9.332;2023-11-19T09:52:31;11.68;;;2.58;;
64597;SDS011;51004;54.692;9.332;2023-11-19T09:54:57;11.73;;;2.80;;
64597;SDS011;51004;54.692;9.332;2023-11-19T09:57:23;8.20;;;2.15;;
64597;SDS011;51004;54.692;9.332;2023-11-19T09:59:49;8.30;;;2.78;;
64597;SDS011;51004;54.692;9.332;2023-11-19T10:02:16;10.07;;;3.00;;
64597;SDS011;51004;54.692;9.332;2023-11-19T10:04:42;8.55;;;2.22;;
64597;SDS011;51004;54.692;9.332;2023-11-19T10:07:10;9.35;;;2.40;;
64597;SDS011;51004;54.692;9.332;2023-11-19T10:09:36;10.60;;;3.20;;
64597;SDS011;51004;54.692;9.332;2023-11-19T10:12:02;12.13;;;2.45;;
64597;SDS011;51004;54.692;9.332;2023-11-19T10:14:28;10.95;;;2.50;;
64597;SDS011;51004;54.692;9.332;2023-11-19T10:16:55;9.77;;;2.75;;
64597;SDS011;51004;54.692;9.332;2023-11-19T10:19:25;8.43;;;2.38;;
64597;SDS011;51004;54.692;9.332;2023-11-19T10:21:51;11.40;;;2.13;;
64597;SDS011;51004;54.692;9.332;2023-11-19T10:24:24;7.93;;;2.10;;
64597;SDS011;51004;54.692;9.332;2023-11-19T10:26:57;12.60;;;3.13;;
64597;SDS011;51004;54.692;9.332;2023-11-19T10:29:23;13.98;;;3.00;;
64597;SDS011;51004;54.692;9.332;2023-11-19T10:31:56;10.15;;;3.35;;
64597;SDS011;51004;54.692;9.332;2023-11-19T10:34:26;15.07;;;2.83;;
64597;SDS011;51004;54.692;9.332;2023-11-19T10:36:52;13.25;;;2.90;;
64597;SDS011;51004;54.692;9.332;2023-11-19T10:39:18;10.65;;;2.88;;
64597;SDS011;51004;54.692;9.332;2023-11-19T10:41:46;10.15;;;2.80;;
64597;SDS011;51004;54.692;9.332;2023-11-19T10:44:12;12.20;;;3.10;;
64597;SDS011;51004;54.692;9.332;2023-11-19T10:46:38;10.82;;;2.60;;
64597;SDS011;51004;54.692;9.332;2023-11-19T10:49:05;10.23;;;2.70;;
64597;SDS011;51004;54.692;9.332;2023-11-19T10:51:32;10.40;;;2.47;;
64597;SDS011;51004;54.692;9.332;2023-11-19T10:54:01;13.10;;;3.53;;
64597;SDS011;51004;54.692;9.332;2023-11-19T10:56:30;10.75;;;2.60;;
64597;SDS011;51004;54.692;9.332;2023-11-19T10:58:56;8.85;;;2.38;;
64597;SDS011;51004;54.692;9.332;2023-11-19T11:01:25;9.27;;;2.42;;
64597;SDS011;51004;54.692;9.332;2023-11-19T11:03:54;11.38;;;2.88;;
64597;SDS011;51004;54.692;9.332;2023-11-19T11:06:21;9.80;;;2.35;;
64597;SDS011;51004;54.692;9.332;2023-11-19T11:08:48;12.57;;;2.60;;
64597;SDS011;51004;54.692;9.332;2023-11-19T11:11:15;11.45;;;2.45;;
64597;SDS011;51004;54.692;9.332;2023-11-19T11:13:48;9.57;;;3.15;;
64597;SDS011;51004;54.692;9.332;2023-11-19T11:16:18;9.63;;;2.38;;
64597;SDS011;51004;54.692;9.332;2023-11-19T11:18:45;11.32;;;2.63;;
64597;SDS011;51004;54.692;9.332;2023-11-19T11:21:20;9.93;;;2.40;;
64597;SDS011;51004;54.692;9.332;2023-11-19T11:29:09;9.40;;;2.63;;
64597;SDS011;51004;54.692;9.332;2023-11-19T11:37:18;10.23;;;2.58;;
64597;SDS011;51004;54.692;9.332;2023-11-19T11:39:49;12.15;;;2.72;;
64597;SDS011;51004;54.692;9.332;2023-11-19T11:50:18;14.38;;;2.75;;
64597;SDS011;51004;54.692;9.332;2023-11-19T11:58:44;11.90;;;3.78;;
64597;SDS011;51004;54.692;9.332;2023-11-19T12:01:14;12.82;;;2.67;;
64597;SDS011;51004;54.692;9.332;2023-11-19T12:03:45;13.48;;;2.88;;
64597;SDS011;51004;54.692;9.332;2023-11-19T12:06:11;13.52;;;3.28;;
64597;SDS011;51004;54.692;9.332;2023-11-19T12:08:40;11.77;;;2.75;;
64597;SDS011;51004;54.692;9.332;2023-11-19T12:11:06;12.75;;;2.70;;
64597;SDS011;51004;54.692;9.332;2023-11-19T12:13:46;12.52;;;3.00;;
64597;SDS011;51004;54.692;9.332;2023-11-19T12:16:13;12.40;;;3.40;;
64597;SDS011;51004;54.692;9.332;2023-11-19T12:18:41;11.57;;;3.10;;
64597;SDS011;51004;54.692;9.332;2023-11-19T12:21:07;13.18;;;3.45;;
64597;SDS011;51004;54.692;9.332;2023-11-19T12:23:34;10.63;;;3.05;;
64597;SDS011;51004;54.692;9.332;2023-11-19T12:26:00;10.88;;;2.83;;
64597;SDS011;51004;54.692;9.332;2023-11-19T12:28:32;13.43;;;2.90;;
64597;SDS011;51004;54.692;9.332;2023-11-19T12:31:08;13.40;;;3.17;;
64597;SDS011;51004;54.692;9.332;2023-11-19T12:33:39;10.80;;;2.85;;
64597;SDS011;51004;54.692;9.332;2023-11-19T12:36:08;8.27;;;2.45;;
64597;SDS011;51004;54.692;9.332;2023-11-19T12:38:34;11.88;;;2.83;;
64597;SDS011;51004;54.692;9.332;2023-11-19T12:41:06;9.45;;;2.78;;
64597;SDS011;51004;54.692;9.332;2023-11-19T12:43:33;9.68;;;2.92;;
64597;SDS011;51004;54.692;9.332;2023-11-19T12:46:18;11.73;;;3.20;;
64597;SDS011;51004;54.692;9.332;2023-11-19T12:48:44;13.25;;;3.00;;
64597;SDS011;51004;54.692;9.332;2023-11-19T12:51:11;9.27;;;2.67;;
64597;SDS011;51004;54.692;9.332;2023-11-19T12:53:50;12.48;;;2.50;;
64597;SDS011;51004;54.692;9.332;2023-11-19T12:56:21;10.13;;;2.83;;
64597;SDS011;51004;54.692;9.332;2023-11-19T12:58:52;14.23;;;3.47;;
64597;SDS011;51004;54.692;9.332;2023-11-19T13:01:18;14.98;;;2.92;;
64597;SDS011;51004;54.692;9.332;2023-11-19T13:03:45;12.52;;;2.70;;
64597;SDS011;51004;54.692;9.332;2023-11-19T13:06:12;11.88;;;2.70;;
64597;SDS011;51004;54.692;9.332;2023-11-19T13:11:08;10.35;;;3.20;;
64597;SDS011;51004;54.692;9.332;2023-11-19T13:13:54;10.77;;;2.45;;
64597;SDS011;51004;54.692;9.332;2023-11-19T13:16:20;11.57;;;2.78;;
64597;SDS011;51004;54.692;9.332;2023-11-19T13:18:46;9.32;;;2.70;;
64597;SDS011;51004;54.692;9.332;2023-11-19T13:21:12;11.35;;;2.72;;
64597;SDS011;51004;54.692;9.332;2023-11-19T13:23:38;7.85;;;2.60;;
64597;SDS011;51004;54.692;9.332;2023-11-19T13:26:04;9.93;;;2.38;;
64597;SDS011;51004;54.692;9.332;2023-11-19T13:28:30;12.75;;;2.67;;
64597;SDS011;51004;54.692;9.332;2023-11-19T13:30:57;10.98;;;2.72;;
64597;SDS011;51004;54.692;9.332;2023-11-19T13:33:23;7.97;;;2.30;;
64597;SDS011;51004;54.692;9.332;2023-11-19T13:35:49;11.80;;;3.17;;
64597;SDS011;51004;54.692;9.332;2023-11-19T13:38:15;11.18;;;2.63;;
64597;SDS011;51004;54.692;9.332;2023-11-19T13:40:41;10.77;;;2.53;;
64597;SDS011;51004;54.692;9.332;2023-11-19T13:43:07;9.00;;;2.38;;
64597;SDS011;51004;54.692;9.332;2023-11-19T13:45:33;8.45;;;2.35;;
64597;SDS011;51004;54.692;9.332;2023-11-19T13:48:05;12.45;;;3.20;;
64597;SDS011;51004;54.692;9.332;2023-11-19T13:50:31;9.30;;;2.53;;
64597;SDS011;51004;54.692;9.332;2023-11-19T13:52:59;9.85;;;2.50;;
64597;SDS011;51004;54.692;9.332;2023-11-19T13:55:25;8.57;;;2.75;;
64597;SDS011;51004;54.692;9.332;2023-11-19T13:57:51;11.73;;;2.55;;
64597;SDS011;51004;54.692;9.332;2023-11-19T14:00:17;8.02;;;2.15;;
64597;SDS011;51004;54.692;9.332;2023-11-19T14:02:44;7.78;;;2.95;;
64597;SDS011;51004;54.692;9.332;2023-11-19T14:05:11;8.75;;;2.55;;
64597;SDS011;51004;54.692;9.332;2023-11-19T14:07:37;8.95;;;2.13;;
64597;SDS011;51004;54.692;9.332;2023-11-19T14:10:03;8.68;;;2.33;;
64597;SDS011;51004;54.692;9.332;2023-11-19T14:12:34;9.77;;;2.85;;
64597;SDS011;51004;54.692;9.332;2023-11-19T14:15:01;10.63;;;3.92;;
64597;SDS011;51004;54.692;9.332;2023-11-19T14:17:27;10.68;;;2.33;;
64597;SDS011;51004;54.692;9.332;2023-11-19T14:19:53;9.02;;;3.10;;
64597;SDS011;51004;54.692;9.332;2023-11-19T14:24:51;7.68;;;2.30;;
64597;SDS011;51004;54.692;9.332;2023-11-19T14:27:17;9.32;;;2.25;;
64597;SDS011;51004;54.692;9.332;2023-11-19T14:29:43;7.50;;;2.47;;
64597;SDS011;51004;54.692;9.332;2023-11-19T14:32:10;8.60;;;2.60;;
64597;SDS011;51004;54.692;9.332;2023-11-19T14:34:36;8.88;;;2.10;;
64597;SDS011;51004;54.692;9.332;2023-11-19T14:37:02;11.52;;;3.35;;
64597;SDS011;51004;54.692;9.332;2023-11-19T14:39:28;7.55;;;2.40;;
64597;SDS011;51004;54.692;9.332;2023-11-19T14:41:56;7.88;;;2.50;;
64597;SDS011;51004;54.692;9.332;2023-11-19T14:44:25;9.40;;;2.38;;
64597;SDS011;51004;54.692;9.332;2023-11-19T14:46:51;7.75;;;2.67;;
64597;SDS011;51004;54.692;9.332;2023-11-19T14:49:18;8.50;;;2.60;;
64597;SDS011;51004;54.692;9.332;2023-11-19T14:51:43;8.30;;;2.10;;
64597;SDS011;51004;54.692;9.332;2023-11-19T14:54:09;8.98;;;2.20;;
64597;SDS011;51004;54.692;9.332;2023-11-19T14:56:35;11.38;;;2.70;;
64597;SDS011;51004;54.692;9.332;2023-11-19T14:59:03;8.70;;;2.38;;
64597;SDS011;51004;54.692;9.332;2023-11-19T15:01:29;8.88;;;2.25;;
64597;SDS011;51004;54.692;9.332;2023-11-19T15:03:55;6.60;;;2.13;;
64597;SDS011;51004;54.692;9.332;2023-11-19T15:06:26;7.70;;;1.90;;
64597;SDS011;51004;54.692;9.332;2023-11-19T15:08:52;11.00;;;2.72;;
64597;SDS011;51004;54.692;9.332;2023-11-19T15:11:19;6.72;;;2.15;;
64597;SDS011;51004;54.692;9.332;2023-11-19T15:13:46;9.75;;;2.92;;
64597;SDS011;51004;54.692;9.332;2023-11-19T15:16:12;7.63;;;2.10;;
64597;SDS011;51004;54.692;9.332;2023-11-19T15:18:39;7.60;;;2.80;;